Time;durP1;ratioP1;P1;durP2;ratioP2;P2;SDS_P1;SDS_P2;PMS_P1;PMS_P2;Temp;Humidity;BMP_temperature;BMP_pressure;BME280_temperature;BME280_humidity;BME280_pressure;Samples;Min_cycle;Max_cycle;Signal;HPM_P1;HPM_P2
2021/06/15 00:01:08;;;;;;;19.15;10.95;;;;;;;;;;1982436;67;20080;-68
2021/06/15 00:03:33;;;;;;;17.23;10.75;;;;;;;;;;1916037;67;20091;-70
2021/06/15 00:05:58;;;;;;;20.30;11.20;;;;;;;;;;1988873;67;20083;-68
2021/06/15 00:08:24;;;;;;;23.50;11.48;;;;;;;;;;1924176;67;20095;-68
2021/06/15 00:10:49;;;;;;;19.40;11.20;;;;;;;;;;1957610;67;20454;-68
2021/06/15 00:13:15;;;;;;;15.35;11.18;;;;;;;;;;1912402;75;20083;-68
2021/06/15 00:15:41;;;;;;;20.35;11.05;;;;;;;;;;1913011;75;20080;-68
2021/06/15 00:18:07;;;;;;;15.73;11.07;;;;;;;;;;1913088;75;20088;-68
2021/06/15 00:20:32;;;;;;;24.27;12.55;;;;;;;;;;1917561;67;20201;-69
2021/06/15 00:22:57;;;;;;;20.15;11.48;;;;;;;;;;1915200;67;20080;-69
2021/06/15 00:25:23;;;;;;;19.75;11.55;;;;;;;;;;1913981;75;20136;-68
2021/06/15 00:27:49;;;;;;;25.13;11.90;;;;;;;;;;1919308;67;20140;-68
2021/06/15 00:30:16;;;;;;;18.48;11.23;;;;;;;;;;1912516;75;20091;-69
2021/06/15 00:32:45;;;;;;;19.38;10.65;;;;;;;;;;1915996;67;20088;-69
2021/06/15 00:35:10;;;;;;;19.02;10.75;;;;;;;;;;2058343;67;20080;-68
2021/06/15 00:37:36;;;;;;;19.60;11.25;;;;;;;;;;1984362;67;20132;-68
2021/06/15 00:40:02;;;;;;;20.52;10.77;;;;;;;;;;1986206;67;20076;-68
2021/06/15 00:42:27;;;;;;;19.63;10.68;;;;;;;;;;1969160;67;20106;-68
2021/06/15 00:44:53;;;;;;;13.95;10.38;;;;;;;;;;1912236;75;20511;-68
2021/06/15 00:47:18;;;;;;;18.27;10.88;;;;;;;;;;1913005;75;20090;-68
2021/06/15 00:49:44;;;;;;;20.55;11.23;;;;;;;;;;1910906;67;20088;-70
2021/06/15 00:52:09;;;;;;;24.05;11.18;;;;;;;;;;1909424;75;20084;-68
2021/06/15 00:54:35;;;;;;;16.50;10.45;;;;;;;;;;1910226;67;20080;-69
2021/06/15 00:57:01;;;;;;;22.38;11.10;;;;;;;;;;1912664;75;20141;-69
2021/06/15 00:59:27;;;;;;;19.02;10.77;;;;;;;;;;1913652;67;20135;-69
2021/06/15 01:01:52;;;;;;;17.75;11.07;;;;;;;;;;1912364;75;20137;-68
2021/06/15 01:04:18;;;;;;;16.58;11.15;;;;;;;;;;1912379;75;20141;-68
2021/06/15 01:07:02;;;;;;;23.42;11.85;;;;;;;;;;1912659;75;20128;-69
2021/06/15 01:09:41;;;;;;;17.98;9.82;;;;;;;;;;1936579;67;20442;-68
2021/06/15 01:12:44;;;;;;;15.77;10.48;;;;;;;;;;1909909;75;20084;-68
2021/06/15 01:15:24;;;;;;;20.38;11.10;;;;;;;;;;1960827;67;20135;-69
2021/06/15 01:17:55;;;;;;;20.05;10.73;;;;;;;;;;1912916;75;20541;-68
2021/06/15 01:20:24;;;;;;;18.65;10.50;;;;;;;;;;1910679;75;20092;-69
2021/06/15 01:23:07;;;;;;;21.77;11.13;;;;;;;;;;1911671;67;20406;-68
2021/06/15 01:25:52;;;;;;;16.00;10.45;;;;;;;;;;1941272;67;20076;-69
2021/06/15 01:28:48;;;;;;;19.15;10.75;;;;;;;;;;1918370;67;20156;-69
2021/06/15 01:31:25;;;;;;;20.27;10.68;;;;;;;;;;1910180;67;20103;-69
2021/06/15 01:33:54;;;;;;;22.40;11.13;;;;;;;;;;1909865;75;20088;-68
2021/06/15 01:36:23;;;;;;;21.17;10.18;;;;;;;;;;1932696;67;20087;-69
2021/06/15 01:38:55;;;;;;;19.88;10.25;;;;;;;;;;1913080;75;20145;-68
2021/06/15 01:42:09;;;;;;;22.13;11.35;;;;;;;;;;1949523;67;20094;-68
2021/06/15 01:44:36;;;;;;;19.30;10.02;;;;;;;;;;1903893;75;20080;-68
2021/06/15 01:47:05;;;;;;;16.17;9.93;;;;;;;;;;1908290;67;20095;-68
2021/06/15 01:49:39;;;;;;;17.88;10.23;;;;;;;;;;1914427;67;20150;-69
2021/06/15 01:52:07;;;;;;;17.38;10.63;;;;;;;;;;1916213;67;20119;-68
2021/06/15 01:54:34;;;;;;;18.52;10.05;;;;;;;;;;1922277;67;20084;-67
2021/06/15 01:57:00;;;;;;;20.33;10.70;;;;;;;;;;1913603;67;20098;-67
2021/06/15 01:59:26;;;;;;;17.77;10.23;;;;;;;;;;1951317;67;20138;-68
2021/06/15 02:01:57;;;;;;;14.13;10.45;;;;;;;;;;1910031;75;20080;-68
2021/06/15 02:04:30;;;;;;;20.20;10.82;;;;;;;;;;1909620;75;20128;-69
2021/06/15 02:06:57;;;;;;;14.95;9.95;;;;;;;;;;1909973;75;20080;-68
2021/06/15 02:09:24;;;;;;;13.82;10.00;;;;;;;;;;1997553;67;20084;-67
2021/06/15 02:11:50;;;;;;;14.80;9.50;;;;;;;;;;1913130;75;20087;-68
2021/06/15 02:14:23;;;;;;;17.00;9.43;;;;;;;;;;1912926;75;20090;-68
2021/06/15 02:16:52;;;;;;;18.33;9.40;;;;;;;;;;1912662;75;20087;-68
2021/06/15 02:19:20;;;;;;;20.35;10.65;;;;;;;;;;2006446;67;20084;-68
2021/06/15 02:21:49;;;;;;;16.52;9.50;;;;;;;;;;1912457;75;20080;-68
2021/06/15 02:24:16;;;;;;;20.42;9.70;;;;;;;;;;1912978;75;20094;-68
2021/06/15 02:26:42;;;;;;;15.70;10.40;;;;;;;;;;1912728;75;20076;-67
2021/06/15 02:29:10;;;;;;;18.77;9.82;;;;;;;;;;1944195;67;20095;-67
2021/06/15 02:31:44;;;;;;;17.77;9.88;;;;;;;;;;2030288;67;20128;-69
2021/06/15 02:34:13;;;;;;;15.48;9.75;;;;;;;;;;1910602;67;20088;-69
2021/06/15 02:36:42;;;;;;;24.58;11.13;;;;;;;;;;1910109;75;20094;-69
2021/06/15 02:39:10;;;;;;;17.02;9.57;;;;;;;;;;1971750;67;20076;-68
2021/06/15 02:41:39;;;;;;;18.85;10.07;;;;;;;;;;2017912;67;20591;-69
2021/06/15 02:44:06;;;;;;;13.75;9.68;;;;;;;;;;1912376;75;20084;-68
2021/06/15 02:46:34;;;;;;;19.30;10.80;;;;;;;;;;1912002;75;20511;-68
2021/06/15 02:49:02;;;;;;;22.13;11.55;;;;;;;;;;1924495;67;20096;-70
2021/06/15 02:51:36;;;;;;;16.73;10.68;;;;;;;;;;1916130;67;20091;-67
2021/06/15 02:54:28;;;;;;;20.85;9.63;;;;;;;;;;1912708;75;20139;-68
2021/06/15 02:56:55;;;;;;;16.13;9.75;;;;;;;;;;1912394;75;20135;-69
2021/06/15 02:59:21;;;;;;;15.80;10.32;;;;;;;;;;2004582;67;20080;-69
2021/06/15 03:01:48;;;;;;;17.25;10.15;;;;;;;;;;1987952;67;20501;-68
2021/06/15 03:04:14;;;;;;;17.58;9.23;;;;;;;;;;1915752;67;20084;-68
2021/06/15 03:06:40;;;;;;;15.93;9.57;;;;;;;;;;1923301;67;20092;-68
2021/06/15 03:09:05;;;;;;;23.35;10.13;;;;;;;;;;2007627;67;20137;-68
2021/06/15 03:11:35;;;;;;;21.80;10.05;;;;;;;;;;1912439;75;20496;-68
2021/06/15 03:14:09;;;;;;;24.42;10.60;;;;;;;;;;1912800;75;20106;-68
2021/06/15 03:16:34;;;;;;;25.65;10.98;;;;;;;;;;1912602;75;20079;-68
2021/06/15 03:19:03;;;;;;;16.50;10.38;;;;;;;;;;1952584;67;20106;-69
2021/06/15 03:21:32;;;;;;;15.90;9.63;;;;;;;;;;1909418;75;20088;-68
2021/06/15 03:24:02;;;;;;;21.25;10.15;;;;;;;;;;1909797;75;20164;-69
2021/06/15 03:26:40;;;;;;;19.65;11.10;;;;;;;;;;1910580;67;20420;-68
2021/06/15 03:29:09;;;;;;;19.10;10.10;;;;;;;;;;1967608;67;20128;-68
2021/06/15 03:31:39;;;;;;;20.13;9.88;;;;;;;;;;1911218;67;20095;-67
2021/06/15 03:34:06;;;;;;;21.65;10.00;;;;;;;;;;1909838;75;20088;-68
2021/06/15 03:36:33;;;;;;;19.85;10.27;;;;;;;;;;1909508;75;20088;-67
2021/06/15 03:38:59;;;;;;;22.10;10.25;;;;;;;;;;1918815;67;20141;-68
2021/06/15 03:41:27;;;;;;;15.77;9.63;;;;;;;;;;1936230;67;20076;-69
2021/06/15 03:43:57;;;;;;;19.35;10.15;;;;;;;;;;2017439;67;20093;-68
2021/06/15 03:46:25;;;;;;;15.57;9.70;;;;;;;;;;1914148;67;20141;-67
2021/06/15 03:48:52;;;;;;;16.90;9.57;;;;;;;;;;1959836;67;20099;-68
2021/06/15 03:51:22;;;;;;;18.67;9.98;;;;;;;;;;1909518;75;20088;-67
2021/06/15 03:53:48;;;;;;;18.58;9.95;;;;;;;;;;1909387;75;20084;-67
2021/06/15 03:56:14;;;;;;;16.58;9.48;;;;;;;;;;1913388;67;20091;-67
2021/06/15 03:58:40;;;;;;;16.25;8.90;;;;;;;;;;1933611;67;20095;-68
2021/06/15 04:01:10;;;;;;;23.05;9.93;;;;;;;;;;1912689;75;20080;-67
2021/06/15 04:03:38;;;;;;;17.27;9.60;;;;;;;;;;1912270;75;20420;-68
2021/06/15 04:06:07;;;;;;;23.63;9.50;;;;;;;;;;1913010;67;20076;-68
2021/06/15 04:08:33;;;;;;;20.77;9.73;;;;;;;;;;1913992;67;20388;-69
2021/06/15 04:11:00;;;;;;;17.55;8.98;;;;;;;;;;1936649;67;20104;-68
2021/06/15 04:13:27;;;;;;;21.42;9.93;;;;;;;;;;1925757;67;20080;-69
2021/06/15 04:15:55;;;;;;;16.33;9.93;;;;;;;;;;1947563;67;20800;-68
2021/06/15 04:18:24;;;;;;;15.05;9.93;;;;;;;;;;1916635;67;20121;-68
2021/06/15 04:20:52;;;;;;;19.30;9.93;;;;;;;;;;1935855;67;20507;-69
2021/06/15 04:23:28;;;;;;;17.60;9.10;;;;;;;;;;1920376;67;20083;-68
2021/06/15 04:25:54;;;;;;;19.80;8.35;;;;;;;;;;1939491;67;20079;-68
2021/06/15 04:28:20;;;;;;;16.48;9.27;;;;;;;;;;1976013;67;20103;-69
2021/06/15 04:30:45;;;;;;;15.13;8.52;;;;;;;;;;1912243;67;20122;-68
2021/06/15 04:33:14;;;;;;;23.17;8.45;;;;;;;;;;1912155;67;20141;-68
2021/06/15 04:35:42;;;;;;;14.90;8.40;;;;;;;;;;1912389;75;20146;-68
2021/06/15 04:38:17;;;;;;;16.10;8.15;;;;;;;;;;1912805;67;20083;-69
2021/06/15 04:40:49;;;;;;;19.20;7.72;;;;;;;;;;1912139;67;20123;-68
2021/06/15 04:43:32;;;;;;;32.33;8.52;;;;;;;;;;1909919;75;20084;-68
2021/06/15 04:46:14;;;;;;;13.55;7.47;;;;;;;;;;1909565;75;20087;-68
2021/06/15 04:48:43;;;;;;;15.52;7.60;;;;;;;;;;1909281;75;20080;-67
2021/06/15 04:51:10;;;;;;;14.23;7.70;;;;;;;;;;1909617;75;20088;-69
2021/06/15 04:53:38;;;;;;;225.95;30.70;;;;;;;;;;1911406;67;20361;-68
2021/06/15 04:56:06;;;;;;;44.28;10.15;;;;;;;;;;1912481;75;20177;-68
2021/06/15 04:58:33;;;;;;;20.40;7.35;;;;;;;;;;1913753;67;20467;-67
2021/06/15 05:01:00;;;;;;;18.02;7.70;;;;;;;;;;1913985;67;20084;-68
2021/06/15 05:03:28;;;;;;;21.63;7.47;;;;;;;;;;1912791;75;20091;-68
2021/06/15 05:05:54;;;;;;;17.88;7.93;;;;;;;;;;1912650;75;20132;-67
2021/06/15 05:08:24;;;;;;;15.38;7.60;;;;;;;;;;1915242;67;20080;-69
2021/06/15 05:10:50;;;;;;;17.45;6.82;;;;;;;;;;1909931;75;20084;-68
2021/06/15 05:13:18;;;;;;;14.90;7.10;;;;;;;;;;1910011;75;20520;-69
2021/06/15 05:15:44;;;;;;;22.40;7.13;;;;;;;;;;1914744;67;20076;-68
2021/06/15 05:18:10;;;;;;;14.07;6.38;;;;;;;;;;1912475;75;20101;-68
2021/06/15 05:20:36;;;;;;;12.65;6.38;;;;;;;;;;1913736;75;20083;-68
2021/06/15 05:23:11;;;;;;;13.00;6.55;;;;;;;;;;1913453;75;20083;-68
2021/06/15 05:25:37;;;;;;;12.45;6.20;;;;;;;;;;1913525;67;20096;-68
2021/06/15 05:28:03;;;;;;;13.68;6.40;;;;;;;;;;1921496;67;20079;-68
2021/06/15 05:30:29;;;;;;;15.35;6.22;;;;;;;;;;1915669;67;20159;-68
2021/06/15 05:32:55;;;;;;;14.93;5.68;;;;;;;;;;1912745;75;20083;-67
2021/06/15 05:35:20;;;;;;;11.60;5.45;;;;;;;;;;1912763;75;20099;-67
2021/06/15 05:37:47;;;;;;;9.70;5.43;;;;;;;;;;1913031;75;20090;-69
2021/06/15 05:40:14;;;;;;;10.80;5.60;;;;;;;;;;1912833;67;20084;-67
2021/06/15 05:42:40;;;;;;;14.68;5.47;;;;;;;;;;1909770;75;20297;-67
2021/06/15 05:45:07;;;;;;;9.70;5.78;;;;;;;;;;1910063;75;20084;-66
2021/06/15 05:47:33;;;;;;;24.10;6.18;;;;;;;;;;1910212;75;20497;-68
2021/06/15 05:49:58;;;;;;;13.02;4.75;;;;;;;;;;1939533;67;20071;-67
2021/06/15 05:52:23;;;;;;;15.75;4.90;;;;;;;;;;1912537;75;20209;-67
2021/06/15 05:54:49;;;;;;;18.08;5.80;;;;;;;;;;1912632;75;20080;-66
2021/06/15 05:57:14;;;;;;;13.65;4.40;;;;;;;;;;1912729;75;20087;-67
2021/06/15 05:59:39;;;;;;;11.25;4.45;;;;;;;;;;1912373;75;20092;-67
2021/06/15 06:02:06;;;;;;;15.60;4.50;;;;;;;;;;1976227;67;20084;-67
2021/06/15 06:04:46;;;;;;;14.90;4.30;;;;;;;;;;1909906;75;20146;-69
2021/06/15 06:09:55;;;;;;;12.00;4.30;;;;;;;;;;2022100;67;20524;-69
2021/06/15 06:12:20;;;;;;;12.85;4.60;;;;;;;;;;1912476;75;20080;-69
2021/06/15 06:14:46;;;;;;;11.95;4.72;;;;;;;;;;1912727;75;20076;-68
2021/06/15 06:17:11;;;;;;;11.15;5.03;;;;;;;;;;1912713;75;20090;-69
2021/06/15 06:19:37;;;;;;;17.23;5.28;;;;;;;;;;1983172;67;20088;-68
2021/06/15 06:22:03;;;;;;;14.73;5.10;;;;;;;;;;1909363;75;20142;-67
2021/06/15 06:24:28;;;;;;;24.42;5.50;;;;;;;;;;1909542;75;20084;-68
2021/06/15 06:26:53;;;;;;;15.60;5.10;;;;;;;;;;1909790;75;20114;-68
2021/06/15 06:29:20;;;;;;;16.55;5.38;;;;;;;;;;1968049;67;20087;-68
2021/06/15 06:31:47;;;;;;;12.93;5.68;;;;;;;;;;1919069;67;20504;-68
2021/06/15 06:34:13;;;;;;;9.05;5.18;;;;;;;;;;1909462;75;20080;-67
2021/06/15 06:36:38;;;;;;;14.07;5.32;;;;;;;;;;1909628;75;20080;-68
2021/06/15 06:39:06;;;;;;;14.50;5.82;;;;;;;;;;1910444;75;20084;-68
2021/06/15 06:41:31;;;;;;;16.55;6.40;;;;;;;;;;1911622;75;20168;-67
2021/06/15 06:43:57;;;;;;;10.18;5.30;;;;;;;;;;1912509;75;20427;-67
2021/06/15 06:46:22;;;;;;;13.88;6.60;;;;;;;;;;1912399;75;20087;-67
2021/06/15 06:48:47;;;;;;;16.17;5.80;;;;;;;;;;1912209;75;20094;-67
2021/06/15 06:51:13;;;;;;;16.13;6.22;;;;;;;;;;1914301;67;20088;-68
2021/06/15 06:53:38;;;;;;;14.43;6.38;;;;;;;;;;1909309;75;20080;-67
2021/06/15 06:56:07;;;;;;;16.60;6.10;;;;;;;;;;1909299;75;20133;-67
2021/06/15 06:58:33;;;;;;;12.45;5.97;;;;;;;;;;1909562;75;20091;-67
2021/06/15 07:00:59;;;;;;;17.00;5.93;;;;;;;;;;1976274;67;20389;-67
2021/06/15 07:03:24;;;;;;;10.45;5.80;;;;;;;;;;1912483;75;20099;-67
2021/06/15 07:05:50;;;;;;;16.85;6.45;;;;;;;;;;1913280;67;20158;-67
2021/06/15 07:08:15;;;;;;;14.43;6.57;;;;;;;;;;1912170;75;20523;-67
2021/06/15 07:10:40;;;;;;;17.50;7.38;;;;;;;;;;1911904;67;20374;-67
2021/06/15 07:13:06;;;;;;;18.65;7.13;;;;;;;;;;1909313;75;20088;-67
2021/06/15 07:15:31;;;;;;;18.80;6.53;;;;;;;;;;1909367;75;20084;-67
2021/06/15 07:17:56;;;;;;;17.75;7.15;;;;;;;;;;1909790;75;20533;-69
2021/06/15 07:20:22;;;;;;;19.20;7.93;;;;;;;;;;1933545;67;20144;-67
2021/06/15 07:22:47;;;;;;;17.42;8.18;;;;;;;;;;1912042;75;20443;-67
2021/06/15 07:25:14;;;;;;;16.15;8.05;;;;;;;;;;1912440;75;20500;-67
2021/06/15 07:27:40;;;;;;;17.25;8.07;;;;;;;;;;1917721;67;20236;-66
2021/06/15 07:30:06;;;;;;;17.88;8.40;;;;;;;;;;1912051;75;20076;-67
2021/06/15 07:32:32;;;;;;;27.95;9.52;;;;;;;;;;1909576;75;20141;-66
2021/06/15 07:34:57;;;;;;;18.55;8.82;;;;;;;;;;1909075;75;20091;-66
2021/06/15 07:37:23;;;;;;;16.73;9.27;;;;;;;;;;1909722;75;20092;-68
2021/06/15 07:39:49;;;;;;;19.90;9.38;;;;;;;;;;1909180;75;20073;-67
2021/06/15 07:42:14;;;;;;;23.73;9.90;;;;;;;;;;2054139;67;20095;-67
2021/06/15 07:44:40;;;;;;;22.10;8.57;;;;;;;;;;1912096;75;20496;-67
2021/06/15 07:47:05;;;;;;;16.00;8.98;;;;;;;;;;1912351;75;20091;-67
2021/06/15 07:49:30;;;;;;;22.73;8.93;;;;;;;;;;1912105;75;20084;-67
2021/06/15 07:51:56;;;;;;;17.95;9.40;;;;;;;;;;1912388;75;20401;-67
2021/06/15 07:54:22;;;;;;;10.70;7.82;;;;;;;;;;1911034;67;20397;-67
2021/06/15 07:56:47;;;;;;;17.92;7.53;;;;;;;;;;1909669;75;20092;-67
2021/06/15 07:59:13;;;;;;;17.95;8.35;;;;;;;;;;1909134;75;20087;-67
2021/06/15 08:01:38;;;;;;;16.63;7.93;;;;;;;;;;1909316;75;20088;-67
2021/06/15 08:04:03;;;;;;;21.55;8.75;;;;;;;;;;1909260;75;20504;-67
2021/06/15 08:06:29;;;;;;;18.05;8.02;;;;;;;;;;1909352;75;20525;-68
2021/06/15 08:08:54;;;;;;;19.33;8.38;;;;;;;;;;2056069;67;20079;-67
2021/06/15 08:11:20;;;;;;;20.02;8.02;;;;;;;;;;1913928;67;20513;-67
2021/06/15 08:13:46;;;;;;;19.73;8.52;;;;;;;;;;1912164;75;20103;-67
2021/06/15 08:16:12;;;;;;;14.45;7.63;;;;;;;;;;1912115;67;20144;-67
2021/06/15 08:18:37;;;;;;;16.60;8.57;;;;;;;;;;1912064;75;20080;-68
2021/06/15 08:21:02;;;;;;;12.38;7.72;;;;;;;;;;1912186;75;20095;-67
2021/06/15 08:23:29;;;;;;;12.43;7.55;;;;;;;;;;1912366;75;20085;-68
2021/06/15 08:25:54;;;;;;;10.73;7.00;;;;;;;;;;1940605;67;20080;-68
2021/06/15 08:28:21;;;;;;;10.93;6.15;;;;;;;;;;1909231;75;20128;-68
2021/06/15 08:30:46;;;;;;;14.18;6.50;;;;;;;;;;1909012;75;20110;-68
2021/06/15 08:33:12;;;;;;;13.70;6.40;;;;;;;;;;1909398;75;20204;-67
2021/06/15 08:35:38;;;;;;;15.40;6.03;;;;;;;;;;1965826;67;20087;-67
2021/06/15 08:38:04;;;;;;;12.73;5.70;;;;;;;;;;1912008;75;20084;-66
2021/06/15 08:40:30;;;;;;;18.48;6.43;;;;;;;;;;1912381;75;20084;-68
2021/06/15 08:42:56;;;;;;;14.05;6.07;;;;;;;;;;1932635;67;20076;-68
2021/06/15 08:45:21;;;;;;;18.73;6.30;;;;;;;;;;1908761;75;20092;-66
2021/06/15 08:47:48;;;;;;;14.35;6.70;;;;;;;;;;1909332;75;20084;-66
2021/06/15 08:50:18;;;;;;;15.48;5.38;;;;;;;;;;1910094;67;20088;-68
2021/06/15 08:52:44;;;;;;;13.25;5.72;;;;;;;;;;1909076;75;20099;-66
2021/06/15 08:55:11;;;;;;;8.23;5.13;;;;;;;;;;1909419;75;20131;-68
2021/06/15 08:57:38;;;;;;;9.95;5.35;;;;;;;;;;1941781;67;20068;-68
2021/06/15 09:00:06;;;;;;;11.07;5.32;;;;;;;;;;1909064;75;20080;-66
2021/06/15 09:02:41;;;;;;;9.90;5.40;;;;;;;;;;1909443;75;20072;-66
2021/06/15 09:05:06;;;;;;;10.05;5.28;;;;;;;;;;1909076;75;20084;-66
2021/06/15 09:07:56;;;;;;;11.10;5.47;;;;;;;;;;1909464;67;20111;-67
2021/06/15 09:10:26;;;;;;;8.88;4.88;;;;;;;;;;1909051;75;20086;-66
2021/06/15 09:12:52;;;;;;;12.23;5.80;;;;;;;;;;1909028;75;20099;-66
2021/06/15 09:15:18;;;;;;;13.10;5.38;;;;;;;;;;1908873;75;20084;-66
2021/06/15 09:17:46;;;;;;;10.07;5.22;;;;;;;;;;1908857;75;20525;-66
2021/06/15 09:20:37;;;;;;;10.82;5.03;;;;;;;;;;1908953;75;20099;-66
2021/06/15 09:23:04;;;;;;;9.00;4.82;;;;;;;;;;1944005;67;20076;-66
2021/06/15 09:25:30;;;;;;;13.93;4.85;;;;;;;;;;1912132;75;20373;-67
2021/06/15 09:27:58;;;;;;;13.45;4.30;;;;;;;;;;1912142;75;20095;-66
2021/06/15 09:30:26;;;;;;;10.10;3.50;;;;;;;;;;1911705;75;20395;-66
2021/06/15 09:32:53;;;;;;;9.20;3.35;;;;;;;;;;2048006;67;20076;-66
2021/06/15 09:35:28;;;;;;;10.38;3.42;;;;;;;;;;1912062;75;20105;-66
2021/06/15 09:37:56;;;;;;;9.07;3.10;;;;;;;;;;1911909;75;20075;-66
2021/06/15 09:40:26;;;;;;;13.90;2.90;;;;;;;;;;1912221;67;20142;-67
2021/06/15 09:43:03;;;;;;;12.30;3.00;;;;;;;;;;1912226;75;20088;-66
2021/06/15 09:45:34;;;;;;;7.90;2.67;;;;;;;;;;1912505;75;20139;-66
2021/06/15 09:48:29;;;;;;;7.07;2.40;;;;;;;;;;1911870;67;20097;-66
2021/06/15 09:51:04;;;;;;;5.57;1.80;;;;;;;;;;1909351;75;20555;-66
2021/06/15 09:53:31;;;;;;;6.07;1.65;;;;;;;;;;1909729;75;20088;-66
2021/06/15 09:55:59;;;;;;;7.15;1.92;;;;;;;;;;1914486;67;20132;-67
2021/06/15 09:58:40;;;;;;;7.10;2.00;;;;;;;;;;1912281;75;20132;-67
2021/06/15 10:01:05;;;;;;;8.10;2.00;;;;;;;;;;1912310;75;20530;-66
2021/06/15 10:03:31;;;;;;;6.18;2.13;;;;;;;;;;1912215;67;20096;-66
2021/06/15 10:05:56;;;;;;;11.85;2.33;;;;;;;;;;1912535;75;20491;-66
2021/06/15 10:08:40;;;;;;;6.68;1.63;;;;;;;;;;1912277;75;20071;-66
2021/06/15 10:11:06;;;;;;;7.55;1.88;;;;;;;;;;1912293;75;20141;-66
2021/06/15 10:13:32;;;;;;;5.32;1.90;;;;;;;;;;1912617;75;20084;-67
2021/06/15 10:15:57;;;;;;;8.68;2.55;;;;;;;;;;1912548;75;20076;-66
2021/06/15 10:18:22;;;;;;;7.30;1.85;;;;;;;;;;2007717;67;20102;-68
2021/06/15 10:20:48;;;;;;;7.75;2.42;;;;;;;;;;1909694;75;20087;-67
2021/06/15 10:23:15;;;;;;;10.32;2.53;;;;;;;;;;1909361;75;20099;-66
2021/06/15 10:25:41;;;;;;;8.68;1.90;;;;;;;;;;1910091;75;20090;-66
2021/06/15 10:28:11;;;;;;;7.80;1.33;;;;;;;;;;1911036;75;20524;-67
2021/06/15 10:30:38;;;;;;;23.13;2.72;;;;;;;;;;1909641;75;20091;-66
2021/06/15 10:33:16;;;;;;;8.88;1.58;;;;;;;;;;1911090;75;20150;-67
2021/06/15 10:35:47;;;;;;;9.93;1.90;;;;;;;;;;1932556;67;20437;-70
2021/06/15 10:38:19;;;;;;;8.88;1.60;;;;;;;;;;1913302;75;20145;-66
2021/06/15 10:40:46;;;;;;;8.48;1.55;;;;;;;;;;1913134;75;20186;-66
2021/06/15 10:43:28;;;;;;;3.60;1.25;;;;;;;;;;1913099;67;20149;-66
2021/06/15 10:45:59;;;;;;;5.95;1.67;;;;;;;;;;1925938;67;20095;-68
2021/06/15 10:48:30;;;;;;;7.60;1.30;;;;;;;;;;1909665;75;20084;-67
2021/06/15 10:50:58;;;;;;;10.35;1.40;;;;;;;;;;1909538;75;20566;-67
2021/06/15 10:53:38;;;;;;;6.05;1.23;;;;;;;;;;1909684;75;20077;-67
2021/06/15 10:56:11;;;;;;;2.40;1.00;;;;;;;;;;1909415;75;20103;-67
2021/06/15 10:58:38;;;;;;;3.70;1.00;;;;;;;;;;1909599;75;20133;-68
2021/06/15 11:01:24;;;;;;;4.55;1.20;;;;;;;;;;1910619;67;20091;-67
2021/06/15 11:03:55;;;;;;;6.85;1.20;;;;;;;;;;1912360;75;20084;-68
2021/06/15 11:06:29;;;;;;;12.88;1.20;;;;;;;;;;1912295;75;20084;-67
2021/06/15 11:09:25;;;;;;;6.25;1.25;;;;;;;;;;1912205;75;20091;-68
2021/06/15 11:12:00;;;;;;;6.88;1.00;;;;;;;;;;1911593;75;20403;-67
2021/06/15 11:14:26;;;;;;;6.07;1.42;;;;;;;;;;1912147;75;20088;-68
2021/06/15 11:16:56;;;;;;;4.22;1.42;;;;;;;;;;1912231;75;20137;-68
2021/06/15 11:19:21;;;;;;;5.03;1.05;;;;;;;;;;1909436;75;20099;-66
2021/06/15 11:21:54;;;;;;;8.07;1.15;;;;;;;;;;1909189;75;20366;-67
2021/06/15 11:24:24;;;;;;;5.45;1.00;;;;;;;;;;1909233;75;20128;-67
2021/06/15 11:26:53;;;;;;;9.52;1.45;;;;;;;;;;1909396;75;20095;-66
2021/06/15 11:29:38;;;;;;;10.43;1.30;;;;;;;;;;1909391;75;20201;-67
2021/06/15 11:32:27;;;;;;;4.13;1.08;;;;;;;;;;1909496;75;20095;-66
2021/06/15 11:34:55;;;;;;;8.27;1.00;;;;;;;;;;1922403;67;20099;-66
2021/06/15 11:37:23;;;;;;;8.18;1.20;;;;;;;;;;1909402;75;20103;-67
2021/06/15 11:39:50;;;;;;;4.00;1.08;;;;;;;;;;1909316;75;20410;-67
2021/06/15 11:42:27;;;;;;;8.70;1.25;;;;;;;;;;1909146;75;20084;-67
2021/06/15 11:45:12;;;;;;;6.80;1.17;;;;;;;;;;1909193;75;20138;-67
2021/06/15 11:47:55;;;;;;;7.00;1.50;;;;;;;;;;1909233;75;20094;-66
2021/06/15 11:50:27;;;;;;;4.35;0.82;;;;;;;;;;2009316;67;20092;-66
2021/06/15 11:53:06;;;;;;;5.57;1.63;;;;;;;;;;1912007;75;20091;-67
2021/06/15 11:55:37;;;;;;;8.40;1.17;;;;;;;;;;1912091;75;20392;-67
2021/06/15 11:58:08;;;;;;;6.50;1.20;;;;;;;;;;1912340;75;20107;-67
2021/06/15 12:00:43;;;;;;;6.60;1.00;;;;;;;;;;1912289;75;20098;-67
2021/06/15 12:03:12;;;;;;;5.47;0.93;;;;;;;;;;1911918;75;20179;-67
2021/06/15 12:05:38;;;;;;;6.30;1.00;;;;;;;;;;2035741;67;20435;-66
2021/06/15 12:08:05;;;;;;;6.88;0.88;;;;;;;;;;1911857;75;20397;-67
2021/06/15 12:10:30;;;;;;;5.35;1.30;;;;;;;;;;1912098;75;20110;-66
2021/06/15 12:13:10;;;;;;;5.80;1.13;;;;;;;;;;1911887;75;20084;-66
2021/06/15 12:15:44;;;;;;;18.25;2.25;;;;;;;;;;1912071;75;20481;-66
2021/06/15 12:18:21;;;;;;;6.63;1.10;;;;;;;;;;1914136;67;20080;-67
2021/06/15 12:20:48;;;;;;;4.15;0.95;;;;;;;;;;1909009;75;20092;-67
2021/06/15 12:23:40;;;;;;;8.43;1.10;;;;;;;;;;1909475;75;20111;-67
2021/06/15 12:26:12;;;;;;;6.70;1.05;;;;;;;;;;1908762;75;20436;-67
2021/06/15 12:28:40;;;;;;;7.63;1.05;;;;;;;;;;1914965;67;20084;-67
2021/06/15 12:31:10;;;;;;;10.73;1.25;;;;;;;;;;1909161;75;20095;-67
2021/06/15 12:33:36;;;;;;;5.72;1.27;;;;;;;;;;1912584;67;20433;-67
2021/06/15 12:36:07;;;;;;;3.03;0.80;;;;;;;;;;1912176;75;20087;-66
2021/06/15 12:38:33;;;;;;;4.57;0.90;;;;;;;;;;1912034;75;20090;-67
2021/06/15 12:40:59;;;;;;;7.45;0.68;;;;;;;;;;1912009;75;20084;-67
2021/06/15 12:43:29;;;;;;;7.28;1.10;;;;;;;;;;1911866;75;20080;-67
2021/06/15 12:46:31;;;;;;;4.63;0.93;;;;;;;;;;1912044;75;20076;-67
2021/06/15 12:49:26;;;;;;;3.45;0.77;;;;;;;;;;1911432;67;20084;-68
2021/06/15 12:52:11;;;;;;;7.30;1.05;;;;;;;;;;2017715;67;20404;-67
2021/06/15 12:54:41;;;;;;;7.93;0.82;;;;;;;;;;1912351;75;20083;-67
2021/06/15 12:57:18;;;;;;;2.55;0.77;;;;;;;;;;1912191;75;20198;-67
2021/06/15 13:00:18;;;;;;;5.90;1.00;;;;;;;;;;1912272;75;20357;-67
2021/06/15 13:02:43;;;;;;;7.00;1.35;;;;;;;;;;1907100;75;20124;-67
2021/06/15 13:05:21;;;;;;;9.20;1.23;;;;;;;;;;1939345;67;20134;-67
2021/06/15 13:07:57;;;;;;;5.72;1.00;;;;;;;;;;1908932;75;20095;-67
2021/06/15 13:10:23;;;;;;;8.95;1.45;;;;;;;;;;1909394;75;20095;-67
2021/06/15 13:12:52;;;;;;;7.97;1.38;;;;;;;;;;1909233;75;20205;-67
2021/06/15 13:15:21;;;;;;;7.40;1.20;;;;;;;;;;1909259;75;20135;-67
2021/06/15 13:17:57;;;;;;;6.88;1.13;;;;;;;;;;1909728;75;20076;-67
2021/06/15 13:20:24;;;;;;;4.95;1.33;;;;;;;;;;1995110;67;20361;-67
2021/06/15 13:22:49;;;;;;;8.75;1.40;;;;;;;;;;1912529;75;20277;-67
2021/06/15 13:25:33;;;;;;;4.30;0.93;;;;;;;;;;1912270;75;20100;-66
2021/06/15 13:28:01;;;;;;;10.55;1.20;;;;;;;;;;1917978;67;20080;-67
2021/06/15 13:30:27;;;;;;;4.28;0.80;;;;;;;;;;1912666;75;20553;-67
2021/06/15 13:33:06;;;;;;;6.68;1.05;;;;;;;;;;1912761;67;20087;-67
2021/06/15 13:35:32;;;;;;;5.18;0.98;;;;;;;;;;1909591;75;20136;-66
2021/06/15 13:38:03;;;;;;;4.38;1.00;;;;;;;;;;1909412;75;20076;-66
2021/06/15 13:40:42;;;;;;;5.22;1.00;;;;;;;;;;1909380;75;20505;-66
2021/06/15 13:43:13;;;;;;;4.90;0.85;;;;;;;;;;1909995;75;20084;-66
2021/06/15 13:45:40;;;;;;;6.80;1.00;;;;;;;;;;1909805;67;20083;-66
2021/06/15 13:48:06;;;;;;;6.20;1.42;;;;;;;;;;1912757;75;20127;-67
2021/06/15 13:50:33;;;;;;;8.35;1.42;;;;;;;;;;1912789;75;20088;-67
2021/06/15 13:52:59;;;;;;;7.70;1.00;;;;;;;;;;1912820;75;20083;-66
2021/06/15 13:55:24;;;;;;;4.82;0.90;;;;;;;;;;1912438;75;20133;-68
2021/06/15 13:57:50;;;;;;;5.40;0.98;;;;;;;;;;1912721;75;20413;-68
2021/06/15 14:00:20;;;;;;;5.60;0.93;;;;;;;;;;1912233;67;20084;-66
2021/06/15 14:02:47;;;;;;;4.90;0.82;;;;;;;;;;1909437;75;20084;-66
2021/06/15 14:05:13;;;;;;;4.40;1.08;;;;;;;;;;1910144;75;20088;-68
2021/06/15 14:07:39;;;;;;;6.22;0.98;;;;;;;;;;1909871;75;20084;-67
2021/06/15 14:10:06;;;;;;;7.30;1.52;;;;;;;;;;1910050;67;20150;-67
2021/06/15 14:12:32;;;;;;;2.88;0.70;;;;;;;;;;1909404;75;20088;-67
2021/06/15 14:15:04;;;;;;;6.97;0.90;;;;;;;;;;1912303;67;20099;-68
2021/06/15 14:17:30;;;;;;;6.65;1.45;;;;;;;;;;1913364;75;20491;-68
2021/06/15 14:19:55;;;;;;;4.88;0.80;;;;;;;;;;1912171;75;20090;-66
2021/06/15 14:22:20;;;;;;;5.57;1.30;;;;;;;;;;1931963;67;20155;-66
2021/06/15 14:24:46;;;;;;;17.65;1.27;;;;;;;;;;1911326;67;20084;-66
2021/06/15 14:27:11;;;;;;;12.00;1.63;;;;;;;;;;1911820;75;20462;-67
2021/06/15 14:29:37;;;;;;;2.45;0.88;;;;;;;;;;1913219;67;20127;-66
2021/06/15 14:32:02;;;;;;;4.28;0.70;;;;;;;;;;1909803;75;20091;-67
2021/06/15 14:34:27;;;;;;;5.18;0.98;;;;;;;;;;1909834;75;20497;-68
2021/06/15 14:36:53;;;;;;;7.53;0.93;;;;;;;;;;1909563;75;20084;-66
2021/06/15 14:39:18;;;;;;;3.17;0.80;;;;;;;;;;1909738;75;20497;-67
2021/06/15 14:41:44;;;;;;;9.60;1.15;;;;;;;;;;1909797;75;20146;-66
2021/06/15 14:44:09;;;;;;;6.75;1.30;;;;;;;;;;1912469;75;20084;-68
2021/06/15 14:46:36;;;;;;;7.80;1.33;;;;;;;;;;1912337;75;20087;-67